Terminal Aerodrome Forecast
Issued by NWS

Home | Current Version | Previous Version | Text Only | Print | Product List | Glossary On
Versions: 1 2 3 4 5 6 7 8 9 10 11 12 13 14 15 16 17 18 19 20 21 22 23 24 25 26 27 28 29
802
FTUS44 KLZK 221720
TAFHRO
TAF
KHRO 221720Z 2218/2318 14006KT P6SM BKN003 OVC008
      TEMPO 2218/2221 5SM -DZ BR OVC003
     FM222100 16007KT P6SM VCSH OVC012
      TEMPO 2221/2301 4SM -SHRA BR OVC005
     FM230100 15006KT 5SM -SHRA BR VCTS BKN003 OVC008CB
      WS020/19040KT PROB30 2303/2309 1SM -TSRA BR OVC003CB
     FM231200 27006KT 4SM BR BKN003 OVC008=

USA.gov is the U.S. government's official web portal to all federal, state and local government web resources and services.